sensor_id;sensor_type;location;lat;lon;timestamp;pressure;altitude;pressure_sealevel;temperature;humidity
48624;BME280;34422;45.802;16.114;2023-02-19T00:01:36;100720.94;;;10.37;95.45
48624;BME280;34422;45.802;16.114;2023-02-19T00:04:06;100719.09;;;10.44;94.80
48624;BME280;34422;45.802;16.114;2023-02-19T00:06:34;100717.22;;;10.38;95.19
48624;BME280;34422;45.802;16.114;2023-02-19T00:09:02;100720.94;;;10.37;95.04
48624;BME280;34422;45.802;16.114;2023-02-19T00:11:31;100723.44;;;10.38;94.87
48624;BME280;34422;45.802;16.114;2023-02-19T00:14:00;100720.31;;;10.41;94.61
48624;BME280;34422;45.802;16.114;2023-02-19T00:16:32;100718.88;;;10.39;94.72
48624;BME280;34422;45.802;16.114;2023-02-19T00:19:00;100719.66;;;10.32;95.68
48624;BME280;34422;45.802;16.114;2023-02-19T00:21:28;100713.16;;;10.20;96.86
48624;BME280;34422;45.802;16.114;2023-02-19T00:23:57;100720.75;;;10.10;98.26
48624;BME280;34422;45.802;16.114;2023-02-19T00:26:25;100718.25;;;10.09;98.69
48624;BME280;34422;45.802;16.114;2023-02-19T00:28:52;100719.47;;;10.06;98.87
48624;BME280;34422;45.802;16.114;2023-02-19T00:31:23;100709.44;;;10.00;99.71
48624;BME280;34422;45.802;16.114;2023-02-19T00:33:52;100709.88;;;10.04;99.63
48624;BME280;34422;45.802;16.114;2023-02-19T00:36:20;100700.31;;;10.01;99.69
48624;BME280;34422;45.802;16.114;2023-02-19T00:38:48;100712.75;;;9.95;100.00
48624;BME280;34422;45.802;16.114;2023-02-19T00:41:16;100720.03;;;9.95;100.00
48624;BME280;34422;45.802;16.114;2023-02-19T00:44:00;100727.13;;;9.96;100.00
48624;BME280;34422;45.802;16.114;2023-02-19T00:46:36;100730.28;;;10.06;99.78
48624;BME280;34422;45.802;16.114;2023-02-19T00:49:04;100726.78;;;10.12;98.95
48624;BME280;34422;45.802;16.114;2023-02-19T00:51:34;100726.94;;;10.04;99.75
48624;BME280;34422;45.802;16.114;2023-02-19T00:54:02;100733.63;;;10.08;99.41
48624;BME280;34422;45.802;16.114;2023-02-19T00:56:29;100736.91;;;9.97;100.00
48624;BME280;34422;45.802;16.114;2023-02-19T00:58:55;100725.56;;;9.87;100.00
48624;BME280;34422;45.802;16.114;2023-02-19T01:01:22;100723.50;;;9.89;100.00
48624;BME280;34422;45.802;16.114;2023-02-19T01:03:49;100723.91;;;9.86;100.00
48624;BME280;34422;45.802;16.114;2023-02-19T01:06:17;100719.31;;;9.86;100.00
48624;BME280;34422;45.802;16.114;2023-02-19T01:08:45;100727.50;;;9.93;100.00
48624;BME280;34422;45.802;16.114;2023-02-19T01:11:12;100721.44;;;9.91;100.00
48624;BME280;34422;45.802;16.114;2023-02-19T01:13:40;100724.41;;;9.96;100.00
48624;BME280;34422;45.802;16.114;2023-02-19T01:16:19;100727.72;;;9.98;100.00
48624;BME280;34422;45.802;16.114;2023-02-19T01:18:46;100726.94;;;10.04;100.00
48624;BME280;34422;45.802;16.114;2023-02-19T01:21:21;100717.81;;;10.05;99.84
48624;BME280;34422;45.802;16.114;2023-02-19T01:23:49;100718.63;;;10.06;100.00
48624;BME280;34422;45.802;16.114;2023-02-19T01:26:19;100711.13;;;10.01;100.00
48624;BME280;34422;45.802;16.114;2023-02-19T01:28:47;100716.53;;;10.01;100.00
48624;BME280;34422;45.802;16.114;2023-02-19T01:31:17;100698.00;;;9.98;100.00
48624;BME280;34422;45.802;16.114;2023-02-19T01:33:51;100707.78;;;9.99;100.00
48624;BME280;34422;45.802;16.114;2023-02-19T01:36:18;100701.75;;;9.97;100.00
48624;BME280;34422;45.802;16.114;2023-02-19T01:38:45;100700.59;;;9.85;100.00
48624;BME280;34422;45.802;16.114;2023-02-19T01:41:15;100701.41;;;9.79;100.00
48624;BME280;34422;45.802;16.114;2023-02-19T01:44:05;100692.47;;;9.78;100.00
48624;BME280;34422;45.802;16.114;2023-02-19T01:46:38;100690.63;;;9.85;100.00
48624;BME280;34422;45.802;16.114;2023-02-19T01:49:18;100684.81;;;9.82;100.00
48624;BME280;34422;45.802;16.114;2023-02-19T01:51:50;100674.22;;;9.87;100.00
48624;BME280;34422;45.802;16.114;2023-02-19T01:54:29;100673.16;;;9.81;100.00
48624;BME280;34422;45.802;16.114;2023-02-19T01:56:58;100666.09;;;9.87;100.00
48624;BME280;34422;45.802;16.114;2023-02-19T01:59:25;100671.50;;;9.87;100.00
48624;BME280;34422;45.802;16.114;2023-02-19T02:01:52;100659.38;;;9.76;100.00
48624;BME280;34422;45.802;16.114;2023-02-19T02:04:19;100671.88;;;9.77;100.00
48624;BME280;34422;45.802;16.114;2023-02-19T02:06:49;100677.63;;;9.68;100.00
48624;BME280;34422;45.802;16.114;2023-02-19T02:09:21;100680.56;;;9.73;100.00
48624;BME280;34422;45.802;16.114;2023-02-19T02:12:08;100684.06;;;9.67;100.00
48624;BME280;34422;45.802;16.114;2023-02-19T02:14:37;100667.50;;;9.48;100.00
48624;BME280;34422;45.802;16.114;2023-02-19T02:20:05;100670.06;;;9.56;100.00
48624;BME280;34422;45.802;16.114;2023-02-19T02:22:40;100669.84;;;9.58;100.00
48624;BME280;34422;45.802;16.114;2023-02-19T02:31:10;100649.63;;;9.47;100.00
48624;BME280;34422;45.802;16.114;2023-02-19T02:33:51;100652.47;;;9.39;100.00
48624;BME280;34422;45.802;16.114;2023-02-19T02:36:28;100656.59;;;9.35;100.00
48624;BME280;34422;45.802;16.114;2023-02-19T02:38:57;100654.16;;;9.40;100.00
48624;BME280;34422;45.802;16.114;2023-02-19T02:41:25;100647.81;;;9.26;100.00
48624;BME280;34422;45.802;16.114;2023-02-19T02:43:52;100649.78;;;9.18;100.00
48624;BME280;34422;45.802;16.114;2023-02-19T02:46:22;100647.09;;;9.18;100.00
48624;BME280;34422;45.802;16.114;2023-02-19T02:48:57;100648.94;;;9.17;100.00
48624;BME280;34422;45.802;16.114;2023-02-19T02:51:43;100641.44;;;9.13;100.00
48624;BME280;34422;45.802;16.114;2023-02-19T02:54:19;100645.94;;;9.06;100.00
48624;BME280;34422;45.802;16.114;2023-02-19T02:57:08;100642.66;;;9.10;100.00
48624;BME280;34422;45.802;16.114;2023-02-19T02:59:41;100641.72;;;8.97;100.00
48624;BME280;34422;45.802;16.114;2023-02-19T03:02:10;100646.72;;;9.00;100.00
48624;BME280;34422;45.802;16.114;2023-02-19T03:05:25;100642.47;;;8.90;100.00
48624;BME280;34422;45.802;16.114;2023-02-19T03:10:23;100645.16;;;8.69;100.00
48624;BME280;34422;45.802;16.114;2023-02-19T03:12:53;100633.97;;;8.51;100.00
48624;BME280;34422;45.802;16.114;2023-02-19T03:15:50;100634.44;;;8.40;100.00
48624;BME280;34422;45.802;16.114;2023-02-19T03:18:39;100636.41;;;8.31;100.00
48624;BME280;34422;45.802;16.114;2023-02-19T03:21:27;100640.31;;;8.14;100.00
48624;BME280;34422;45.802;16.114;2023-02-19T03:23:55;100645.06;;;7.97;100.00
48624;BME280;34422;45.802;16.114;2023-02-19T03:26:43;100643.75;;;7.93;100.00
48624;BME280;34422;45.802;16.114;2023-02-19T03:29:12;100647.09;;;7.95;100.00
48624;BME280;34422;45.802;16.114;2023-02-19T03:31:52;100650.81;;;7.94;100.00
48624;BME280;34422;45.802;16.114;2023-02-19T03:34:25;100654.75;;;7.92;100.00
48624;BME280;34422;45.802;16.114;2023-02-19T03:37:02;100659.75;;;7.80;100.00
48624;BME280;34422;45.802;16.114;2023-02-19T03:39:32;100653.63;;;7.86;100.00
48624;BME280;34422;45.802;16.114;2023-02-19T03:42:19;100657.53;;;7.83;100.00
48624;BME280;34422;45.802;16.114;2023-02-19T03:47:35;100656.69;;;7.83;100.00
48624;BME280;34422;45.802;16.114;2023-02-19T03:50:14;100657.50;;;7.69;100.00
48624;BME280;34422;45.802;16.114;2023-02-19T03:56:00;100657.56;;;7.46;100.00
48624;BME280;34422;45.802;16.114;2023-02-19T03:58:46;100663.84;;;7.38;100.00
48624;BME280;34422;45.802;16.114;2023-02-19T04:01:24;100659.03;;;7.34;100.00
48624;BME280;34422;45.802;16.114;2023-02-19T04:03:58;100656.72;;;7.31;100.00
48624;BME280;34422;45.802;16.114;2023-02-19T04:06:30;100660.53;;;7.36;100.00
48624;BME280;34422;45.802;16.114;2023-02-19T04:09:02;100656.88;;;7.29;100.00
48624;BME280;34422;45.802;16.114;2023-02-19T04:11:29;100656.53;;;7.32;100.00
48624;BME280;34422;45.802;16.114;2023-02-19T04:14:03;100658.56;;;7.30;100.00
48624;BME280;34422;45.802;16.114;2023-02-19T04:16:36;100653.84;;;7.32;100.00
48624;BME280;34422;45.802;16.114;2023-02-19T04:19:09;100653.63;;;7.19;100.00
48624;BME280;34422;45.802;16.114;2023-02-19T04:21:38;100655.66;;;7.17;100.00
48624;BME280;34422;45.802;16.114;2023-02-19T04:24:11;100650.94;;;7.19;100.00
48624;BME280;34422;45.802;16.114;2023-02-19T04:26:40;100652.66;;;7.12;100.00
48624;BME280;34422;45.802;16.114;2023-02-19T04:29:07;100649.72;;;6.99;100.00
48624;BME280;34422;45.802;16.114;2023-02-19T04:31:34;100652.13;;;6.94;100.00
48624;BME280;34422;45.802;16.114;2023-02-19T04:34:02;100644.94;;;6.86;100.00
48624;BME280;34422;45.802;16.114;2023-02-19T04:36:30;100645.69;;;6.80;100.00
48624;BME280;34422;45.802;16.114;2023-02-19T04:38:57;100637.91;;;6.85;100.00
48624;BME280;34422;45.802;16.114;2023-02-19T04:41:24;100631.16;;;6.66;100.00
48624;BME280;34422;45.802;16.114;2023-02-19T04:43:51;100628.81;;;6.63;100.00
48624;BME280;34422;45.802;16.114;2023-02-19T04:46:18;100627.63;;;6.66;100.00
48624;BME280;34422;45.802;16.114;2023-02-19T04:48:45;100617.91;;;6.57;100.00
48624;BME280;34422;45.802;16.114;2023-02-19T04:51:11;100621.50;;;6.49;100.00
48624;BME280;34422;45.802;16.114;2023-02-19T04:53:38;100618.50;;;6.44;100.00
48624;BME280;34422;45.802;16.114;2023-02-19T04:56:11;100629.63;;;6.41;100.00
48624;BME280;34422;45.802;16.114;2023-02-19T04:58:39;100631.16;;;6.35;100.00
48624;BME280;34422;45.802;16.114;2023-02-19T05:01:06;100622.44;;;6.33;100.00
48624;BME280;34422;45.802;16.114;2023-02-19T05:03:33;100633.91;;;6.27;100.00
48624;BME280;34422;45.802;16.114;2023-02-19T05:06:04;100637.94;;;6.23;100.00
48624;BME280;34422;45.802;16.114;2023-02-19T05:08:31;100631.06;;;6.21;100.00
48624;BME280;34422;45.802;16.114;2023-02-19T05:10:59;100624.06;;;6.12;100.00
48624;BME280;34422;45.802;16.114;2023-02-19T05:13:27;100630.47;;;6.11;100.00
48624;BME280;34422;45.802;16.114;2023-02-19T05:16:03;100624.75;;;6.14;100.00
48624;BME280;34422;45.802;16.114;2023-02-19T05:18:31;100628.06;;;6.16;100.00
48624;BME280;34422;45.802;16.114;2023-02-19T05:20:58;100625.38;;;6.16;100.00
48624;BME280;34422;45.802;16.114;2023-02-19T05:23:26;100624.75;;;6.05;100.00
48624;BME280;34422;45.802;16.114;2023-02-19T05:25:53;100623.56;;;6.08;100.00
48624;BME280;34422;45.802;16.114;2023-02-19T05:28:21;100627.06;;;6.17;100.00
48624;BME280;34422;45.802;16.114;2023-02-19T05:30:55;100626.44;;;6.06;100.00
48624;BME280;34422;45.802;16.114;2023-02-19T05:33:24;100627.59;;;6.12;100.00
48624;BME280;34422;45.802;16.114;2023-02-19T05:35:53;100626.44;;;6.06;100.00
48624;BME280;34422;45.802;16.114;2023-02-19T05:38:21;100629.00;;;6.00;100.00
48624;BME280;34422;45.802;16.114;2023-02-19T05:40:49;100626.16;;;5.93;100.00
48624;BME280;34422;45.802;16.114;2023-02-19T05:43:16;100634.22;;;5.93;100.00
48624;BME280;34422;45.802;16.114;2023-02-19T05:45:43;100619.78;;;5.94;100.00
48624;BME280;34422;45.802;16.114;2023-02-19T05:48:10;100623.13;;;5.96;100.00
48624;BME280;34422;45.802;16.114;2023-02-19T05:50:37;100616.25;;;5.94;100.00
48624;BME280;34422;45.802;16.114;2023-02-19T05:53:04;100628.50;;;5.88;100.00
48624;BME280;34422;45.802;16.114;2023-02-19T05:55:34;100624.13;;;5.95;100.00
48624;BME280;34422;45.802;16.114;2023-02-19T05:58:01;100624.25;;;6.02;100.00
48624;BME280;34422;45.802;16.114;2023-02-19T06:00:28;100625.94;;;6.03;100.00
48624;BME280;34422;45.802;16.114;2023-02-19T06:02:56;100622.13;;;5.97;100.00
48624;BME280;34422;45.802;16.114;2023-02-19T06:05:22;100629.16;;;5.98;100.00
48624;BME280;34422;45.802;16.114;2023-02-19T06:07:49;100620.94;;;6.00;100.00
48624;BME280;34422;45.802;16.114;2023-02-19T06:10:16;100629.28;;;6.05;100.00
48624;BME280;34422;45.802;16.114;2023-02-19T06:12:43;100635.50;;;6.05;100.00
48624;BME280;34422;45.802;16.114;2023-02-19T06:15:10;100629.44;;;6.12;100.00
48624;BME280;34422;45.802;16.114;2023-02-19T06:17:37;100629.09;;;6.15;100.00
48624;BME280;34422;45.802;16.114;2023-02-19T06:20:04;100633.75;;;6.21;100.00
48624;BME280;34422;45.802;16.114;2023-02-19T06:22:31;100632.06;;;6.28;100.00
48624;BME280;34422;45.802;16.114;2023-02-19T06:24:58;100643.44;;;6.30;100.00
48624;BME280;34422;45.802;16.114;2023-02-19T06:27:25;100641.56;;;6.38;100.00
48624;BME280;34422;45.802;16.114;2023-02-19T06:29:52;100633.69;;;6.37;100.00
48624;BME280;34422;45.802;16.114;2023-02-19T06:32:18;100627.59;;;6.43;100.00
48624;BME280;34422;45.802;16.114;2023-02-19T06:34:45;100626.19;;;6.55;100.00
48624;BME280;34422;45.802;16.114;2023-02-19T06:37:12;100633.84;;;6.66;100.00
48624;BME280;34422;45.802;16.114;2023-02-19T06:39:39;100623.44;;;6.63;100.00
48624;BME280;34422;45.802;16.114;2023-02-19T06:42:06;100627.22;;;6.77;100.00
48624;BME280;34422;45.802;16.114;2023-02-19T06:44:33;100633.06;;;6.81;100.00
48624;BME280;34422;45.802;16.114;2023-02-19T06:46:59;100638.56;;;6.87;100.00
48624;BME280;34422;45.802;16.114;2023-02-19T06:49:26;100636.09;;;7.00;100.00
48624;BME280;34422;45.802;16.114;2023-02-19T06:51:53;100641.88;;;7.12;100.00
48624;BME280;34422;45.802;16.114;2023-02-19T06:54:20;100642.06;;;7.33;100.00
48624;BME280;34422;45.802;16.114;2023-02-19T06:56:46;100640.66;;;7.52;100.00
48624;BME280;34422;45.802;16.114;2023-02-19T06:59:14;100638.38;;;7.64;100.00
48624;BME280;34422;45.802;16.114;2023-02-19T07:01:45;100634.66;;;7.79;100.00
48624;BME280;34422;45.802;16.114;2023-02-19T07:04:11;100634.03;;;7.92;100.00
48624;BME280;34422;45.802;16.114;2023-02-19T07:06:39;100632.25;;;7.99;100.00
48624;BME280;34422;45.802;16.114;2023-02-19T07:09:06;100636.06;;;8.19;100.00
48624;BME280;34422;45.802;16.114;2023-02-19T07:11:35;100630.84;;;8.33;100.00
48624;BME280;34422;45.802;16.114;2023-02-19T07:14:05;100630.59;;;8.49;100.00
48624;BME280;34422;45.802;16.114;2023-02-19T07:16:35;100630.50;;;8.57;100.00
48624;BME280;34422;45.802;16.114;2023-02-19T07:19:02;100638.47;;;8.65;100.00
48624;BME280;34422;45.802;16.114;2023-02-19T07:21:29;100637.78;;;8.78;100.00
48624;BME280;34422;45.802;16.114;2023-02-19T07:23:56;100643.63;;;8.81;100.00
48624;BME280;34422;45.802;16.114;2023-02-19T07:26:23;100641.00;;;8.88;100.00
48624;BME280;34422;45.802;16.114;2023-02-19T07:28:51;100645.22;;;8.76;100.00
48624;BME280;34422;45.802;16.114;2023-02-19T07:31:19;100661.50;;;8.82;100.00
48624;BME280;34422;45.802;16.114;2023-02-19T07:33:47;100655.31;;;8.88;100.00
48624;BME280;34422;45.802;16.114;2023-02-19T07:36:15;100662.38;;;8.89;100.00
48624;BME280;34422;45.802;16.114;2023-02-19T07:38:43;100643.38;;;8.98;100.00
48624;BME280;34422;45.802;16.114;2023-02-19T07:41:10;100642.22;;;9.07;100.00
48624;BME280;34422;45.802;16.114;2023-02-19T07:43:38;100638.09;;;9.11;100.00
48624;BME280;34422;45.802;16.114;2023-02-19T07:46:11;100644.91;;;9.28;100.00
48624;BME280;34422;45.802;16.114;2023-02-19T07:48:40;100635.88;;;9.42;100.00
48624;BME280;34422;45.802;16.114;2023-02-19T07:51:11;100636.72;;;9.43;100.00
48624;BME280;34422;45.802;16.114;2023-02-19T07:53:38;100640.09;;;9.51;100.00
48624;BME280;34422;45.802;16.114;2023-02-19T07:56:07;100634.31;;;9.54;100.00
48624;BME280;34422;45.802;16.114;2023-02-19T07:58:35;100647.66;;;9.62;100.00
48624;BME280;34422;45.802;16.114;2023-02-19T08:01:16;100648.47;;;9.56;100.00
48624;BME280;34422;45.802;16.114;2023-02-19T08:03:44;100653.06;;;9.62;100.00
48624;BME280;34422;45.802;16.114;2023-02-19T08:06:11;100649.13;;;9.65;100.00
48624;BME280;34422;45.802;16.114;2023-02-19T08:08:38;100657.41;;;9.91;100.00
48624;BME280;34422;45.802;16.114;2023-02-19T08:11:05;100654.00;;;10.17;100.00
48624;BME280;34422;45.802;16.114;2023-02-19T08:13:51;100653.56;;;10.07;100.00
48624;BME280;34422;45.802;16.114;2023-02-19T08:16:19;100638.53;;;10.32;100.00
48624;BME280;34422;45.802;16.114;2023-02-19T08:18:47;100656.03;;;10.37;100.00
48624;BME280;34422;45.802;16.114;2023-02-19T08:21:14;100656.06;;;10.50;100.00
48624;BME280;34422;45.802;16.114;2023-02-19T08:23:43;100649.00;;;10.49;100.00
48624;BME280;34422;45.802;16.114;2023-02-19T08:26:12;100657.31;;;10.54;100.00
48624;BME280;34422;45.802;16.114;2023-02-19T08:28:39;100643.22;;;10.72;100.00
48624;BME280;34422;45.802;16.114;2023-02-19T08:31:07;100639.50;;;10.86;100.00
48624;BME280;34422;45.802;16.114;2023-02-19T08:33:35;100642.44;;;10.97;100.00
48624;BME280;34422;45.802;16.114;2023-02-19T08:36:04;100649.56;;;11.25;100.00
48624;BME280;34422;45.802;16.114;2023-02-19T08:38:32;100654.97;;;11.25;100.00
48624;BME280;34422;45.802;16.114;2023-02-19T08:41:08;100645.41;;;11.42;100.00
48624;BME280;34422;45.802;16.114;2023-02-19T08:43:36;100650.41;;;11.45;100.00
48624;BME280;34422;45.802;16.114;2023-02-19T08:46:03;100658.72;;;11.57;100.00
48624;BME280;34422;45.802;16.114;2023-02-19T08:48:30;100659.97;;;11.67;100.00
48624;BME280;34422;45.802;16.114;2023-02-19T08:51:03;100660.38;;;11.71;100.00
48624;BME280;34422;45.802;16.114;2023-02-19T08:53:31;100649.34;;;11.86;100.00
48624;BME280;34422;45.802;16.114;2023-02-19T08:55:58;100650.78;;;11.95;100.00
48624;BME280;34422;45.802;16.114;2023-02-19T08:58:25;100658.66;;;12.03;100.00
48624;BME280;34422;45.802;16.114;2023-02-19T09:00:52;100664.06;;;12.23;100.00
48624;BME280;34422;45.802;16.114;2023-02-19T09:03:19;100668.22;;;12.25;100.00
48624;BME280;34422;45.802;16.114;2023-02-19T09:05:46;100663.63;;;12.26;100.00
48624;BME280;34422;45.802;16.114;2023-02-19T09:08:13;100658.56;;;12.42;100.00
48624;BME280;34422;45.802;16.114;2023-02-19T09:10:40;100663.59;;;12.39;100.00
48624;BME280;34422;45.802;16.114;2023-02-19T09:13:06;100663.16;;;12.35;100.00
48624;BME280;34422;45.802;16.114;2023-02-19T09:15:33;100658.63;;;12.29;100.00
48624;BME280;34422;45.802;16.114;2023-02-19T09:18:00;100651.47;;;12.35;100.00
48624;BME280;34422;45.802;16.114;2023-02-19T09:20:27;100643.19;;;12.23;100.00
48624;BME280;34422;45.802;16.114;2023-02-19T09:22:57;100656.13;;;12.21;100.00
48624;BME280;34422;45.802;16.114;2023-02-19T09:25:25;100650.91;;;12.26;100.00
48624;BME280;34422;45.802;16.114;2023-02-19T09:27:55;100650.91;;;12.26;100.00
48624;BME280;34422;45.802;16.114;2023-02-19T09:30:22;100649.03;;;12.20;100.00
48624;BME280;34422;45.802;16.114;2023-02-19T09:32:49;100659.22;;;12.31;98.03
48624;BME280;34422;45.802;16.114;2023-02-19T09:35:16;100657.53;;;12.30;97.36
48624;BME280;34422;45.802;16.114;2023-02-19T09:37:42;100651.94;;;12.25;98.37
48624;BME280;34422;45.802;16.114;2023-02-19T09:40:10;100649.81;;;12.40;98.58
48624;BME280;34422;45.802;16.114;2023-02-19T09:42:39;100650.53;;;12.61;98.00
48624;BME280;34422;45.802;16.114;2023-02-19T09:45:07;100644.28;;;12.60;97.07
48624;BME280;34422;45.802;16.114;2023-02-19T09:47:35;100639.47;;;12.62;97.72
48624;BME280;34422;45.802;16.114;2023-02-19T09:50:07;100636.53;;;12.64;97.42
48624;BME280;34422;45.802;16.114;2023-02-19T09:55:14;100631.22;;;12.82;99.07
48624;BME280;34422;45.802;16.114;2023-02-19T09:57:42;100635.28;;;12.98;95.17
48624;BME280;34422;45.802;16.114;2023-02-19T10:02:37;100636.28;;;13.03;93.53
48624;BME280;34422;45.802;16.114;2023-02-19T10:05:12;100642.69;;;13.15;93.55
48624;BME280;34422;45.802;16.114;2023-02-19T10:07:42;100646.03;;;13.18;95.86
48624;BME280;34422;45.802;16.114;2023-02-19T10:12:45;100627.00;;;12.86;95.82
48624;BME280;34422;45.802;16.114;2023-02-19T10:15:18;100622.97;;;12.95;96.05
48624;BME280;34422;45.802;16.114;2023-02-19T10:17:48;100626.97;;;12.93;94.73
48624;BME280;34422;45.802;16.114;2023-02-19T10:20:17;100623.59;;;12.97;95.24
48624;BME280;34422;45.802;16.114;2023-02-19T10:22:45;100610.66;;;12.93;94.66
48624;BME280;34422;45.802;16.114;2023-02-19T10:25:15;100625.41;;;13.03;93.43
48624;BME280;34422;45.802;16.114;2023-02-19T10:27:43;100615.16;;;13.05;92.73
48624;BME280;34422;45.802;16.114;2023-02-19T10:30:17;100604.72;;;13.02;92.80
48624;BME280;34422;45.802;16.114;2023-02-19T10:33:02;100609.72;;;13.05;92.67
48624;BME280;34422;45.802;16.114;2023-02-19T10:35:34;100612.63;;;13.10;93.08
48624;BME280;34422;45.802;16.114;2023-02-19T10:38:02;100620.97;;;13.15;91.87
48624;BME280;34422;45.802;16.114;2023-02-19T10:40:32;100610.41;;;13.26;90.92
48624;BME280;34422;45.802;16.114;2023-02-19T10:43:02;100613.06;;;13.07;91.14
48624;BME280;34422;45.802;16.114;2023-02-19T10:48:03;100604.59;;;13.47;87.24
48624;BME280;34422;45.802;16.114;2023-02-19T10:50:31;100614.13;;;13.38;85.83
48624;BME280;34422;45.802;16.114;2023-02-19T10:53:00;100610.66;;;13.49;85.30
48624;BME280;34422;45.802;16.114;2023-02-19T10:55:30;100601.09;;;13.40;85.48
48624;BME280;34422;45.802;16.114;2023-02-19T10:58:19;100594.78;;;13.46;85.13
48624;BME280;34422;45.802;16.114;2023-02-19T11:00:47;100600.16;;;13.28;85.12
48624;BME280;34422;45.802;16.114;2023-02-19T11:05:53;100591.34;;;13.57;83.52
48624;BME280;34422;45.802;16.114;2023-02-19T11:08:23;100589.78;;;13.86;83.74
48624;BME280;34422;45.802;16.114;2023-02-19T11:10:50;100595.50;;;13.96;82.18
48624;BME280;34422;45.802;16.114;2023-02-19T11:13:26;100584.72;;;13.90;80.78
48624;BME280;34422;45.802;16.114;2023-02-19T11:15:56;100587.41;;;14.08;81.51
48624;BME280;34422;45.802;16.114;2023-02-19T11:18:28;100581.19;;;14.37;81.05
48624;BME280;34422;45.802;16.114;2023-02-19T11:20:56;100588.97;;;14.52;78.89
48624;BME280;34422;45.802;16.114;2023-02-19T11:23:31;100587.50;;;14.68;78.23
48624;BME280;34422;45.802;16.114;2023-02-19T11:26:03;100580.53;;;14.72;74.97
48624;BME280;34422;45.802;16.114;2023-02-19T11:28:34;100579.25;;;14.44;73.13
48624;BME280;34422;45.802;16.114;2023-02-19T11:31:21;100564.16;;;14.60;73.10
48624;BME280;34422;45.802;16.114;2023-02-19T11:33:55;100576.66;;;14.91;73.37
48624;BME280;34422;45.802;16.114;2023-02-19T11:38:48;100566.47;;;14.75;73.42
48624;BME280;34422;45.802;16.114;2023-02-19T11:46:45;100559.34;;;14.74;70.66
48624;BME280;34422;45.802;16.114;2023-02-19T11:52:23;100549.91;;;14.46;70.00
48624;BME280;34422;45.802;16.114;2023-02-19T11:55:10;100539.88;;;14.58;72.57
48624;BME280;34422;45.802;16.114;2023-02-19T11:57:45;100543.63;;;14.87;70.75
48624;BME280;34422;45.802;16.114;2023-02-19T12:02:53;100541.97;;;14.98;67.55
48624;BME280;34422;45.802;16.114;2023-02-19T12:05:29;100543.00;;;14.74;67.83
48624;BME280;34422;45.802;16.114;2023-02-19T12:16:46;100533.94;;;15.03;65.06
48624;BME280;34422;45.802;16.114;2023-02-19T12:19:28;100513.22;;;15.02;65.65
48624;BME280;34422;45.802;16.114;2023-02-19T12:30:14;100507.38;;;15.34;64.99
48624;BME280;34422;45.802;16.114;2023-02-19T12:36:08;100500.88;;;15.11;64.73
48624;BME280;34422;45.802;16.114;2023-02-19T12:38:42;100504.66;;;15.10;64.99
48624;BME280;34422;45.802;16.114;2023-02-19T12:43:59;100509.66;;;15.13;64.81
48624;BME280;34422;45.802;16.114;2023-02-19T12:46:36;100506.22;;;15.41;64.40
48624;BME280;34422;45.802;16.114;2023-02-19T12:49:10;100510.25;;;15.39;63.30
48624;BME280;34422;45.802;16.114;2023-02-19T12:51:51;100505.47;;;15.46;62.96
48624;BME280;34422;45.802;16.114;2023-02-19T12:54:25;100512.00;;;15.45;62.62
48624;BME280;34422;45.802;16.114;2023-02-19T12:57:05;100497.78;;;15.43;62.15
48624;BME280;34422;45.802;16.114;2023-02-19T13:00:01;100507.97;;;15.36;62.18
48624;BME280;34422;45.802;16.114;2023-02-19T13:02:40;100489.97;;;15.35;62.12
48624;BME280;34422;45.802;16.114;2023-02-19T13:13:10;100488.03;;;15.47;62.31
48624;BME280;34422;45.802;16.114;2023-02-19T13:15:41;100488.66;;;15.49;61.90
48624;BME280;34422;45.802;16.114;2023-02-19T13:18:16;100471.56;;;15.53;61.38
48624;BME280;34422;45.802;16.114;2023-02-19T13:20:45;100474.50;;;15.75;60.88
48624;BME280;34422;45.802;16.114;2023-02-19T13:23:30;100471.06;;;15.80;60.64
48624;BME280;34422;45.802;16.114;2023-02-19T13:29:54;100473.47;;;16.05;60.71
48624;BME280;34422;45.802;16.114;2023-02-19T13:38:22;100472.28;;;16.00;58.86
48624;BME280;34422;45.802;16.114;2023-02-19T13:40:54;100459.97;;;15.98;60.15
48624;BME280;34422;45.802;16.114;2023-02-19T13:43:33;100459.97;;;15.98;60.46
48624;BME280;34422;45.802;16.114;2023-02-19T13:46:08;100453.00;;;15.90;60.53
48624;BME280;34422;45.802;16.114;2023-02-19T13:48:39;100451.91;;;15.91;61.53
48624;BME280;34422;45.802;16.114;2023-02-19T13:53:49;100461.38;;;16.00;58.59
48624;BME280;34422;45.802;16.114;2023-02-19T14:17:39;100454.53;;;15.86;61.59
48624;BME280;34422;45.802;16.114;2023-02-19T14:27:50;100467.91;;;15.71;59.61
48624;BME280;34422;45.802;16.114;2023-02-19T14:30:19;100466.16;;;15.93;60.01
48624;BME280;34422;45.802;16.114;2023-02-19T14:32:49;100473.28;;;15.94;59.08
48624;BME280;34422;45.802;16.114;2023-02-19T14:35:20;100468.56;;;15.78;59.44
48624;BME280;34422;45.802;16.114;2023-02-19T14:37:49;100468.19;;;15.86;59.42
48624;BME280;34422;45.802;16.114;2023-02-19T14:40:20;100470.44;;;15.89;59.90
48624;BME280;34422;45.802;16.114;2023-02-19T14:42:50;100473.19;;;15.78;59.25
48624;BME280;34422;45.802;16.114;2023-02-19T14:45:19;100470.50;;;15.66;59.54
48624;BME280;34422;45.802;16.114;2023-02-19T14:47:47;100486.41;;;15.69;59.71
48624;BME280;34422;45.802;16.114;2023-02-19T14:50:20;100494.09;;;15.60;59.85
48624;BME280;34422;45.802;16.114;2023-02-19T14:52:54;100493.03;;;15.50;60.69